Terminal Aerodrome Forecast
Issued by NWS St Louis, MO

Home | Current Version | Previous Version | Text Only | Print | Product List | Glossary On
Versions: 1 2 3 4 5 6 7 8 9 10 11 12 13 14 15 16 17 18 19 20 21
674
FTUS43 KLSX 160540
TAFCOU
TAF
KCOU 160540Z 1606/1706 11009KT 1/2SM FG OVC002
     FM160900 11008KT 1/2SM -RA FG OVC002
     FM161600 13011KT 2SM RA BR OVC004
     FM162300 16008KT 4SM BR OVC008
     FM170400 23009KT 5SM BR OVC010=

USA.gov is the U.S. government's official web portal to all federal, state and local government web resources and services.